Time;durP1;ratioP1;P1;durP2;ratioP2;P2;SDS_P1;SDS_P2;PMS_P1;PMS_P2;Temp;Humidity;BMP_temperature;BMP_pressure;BME280_temperature;BME280_humidity;BME280_pressure;Samples;Min_cycle;Max_cycle;Signal;HPM_P1;HPM_P2
2023/05/07 00:00:19;;;;;;;;;;;11.90;99.90;;;;;;5080501;28;20022;-88
2023/05/07 00:02:47;;;;;;;;;;;11.90;99.90;;;;;;5080432;28;19923;-88
2023/05/07 00:05:13;;;;;;;;;;;11.90;99.90;;;;;;5098086;28;19975;-88
2023/05/07 00:07:38;;;;;;;;;;;11.80;99.90;;;;;;5081051;28;19923;-88
2023/05/07 00:10:06;;;;;;;;;;;11.80;99.90;;;;;;5080920;28;19924;-88
2023/05/07 00:12:33;;;;;;;;;;;11.80;99.90;;;;;;5097622;28;20385;-88
2023/05/07 00:14:59;;;;;;;;;;;11.70;99.90;;;;;;5114655;28;19971;-88
2023/05/07 00:17:25;;;;;;;;;;;11.80;99.90;;;;;;5097506;28;19930;-88
2023/05/07 00:19:50;;;;;;;;;;;11.70;99.90;;;;;;5097356;28;19924;-88
2023/05/07 00:22:16;;;;;;;;;;;11.70;99.90;;;;;;5081416;28;19930;-88
2023/05/07 00:24:42;;;;;;;;;;;11.70;99.90;;;;;;5080769;28;20022;-88
2023/05/07 00:27:07;;;;;;;;;;;11.60;99.90;;;;;;5097341;28;19923;-87
2023/05/07 00:29:33;;;;;;;;;;;11.60;99.90;;;;;;5097283;28;19947;-89
2023/05/07 00:31:58;;;;;;;;;;;11.60;99.90;;;;;;5080485;28;20023;-89
2023/05/07 00:34:24;;;;;;;;;;;11.50;99.90;;;;;;5097220;28;19924;-88
2023/05/07 00:36:50;;;;;;;;;;;11.50;99.90;;;;;;5114862;28;19946;-89
2023/05/07 00:39:15;;;;;;;;;;;11.60;99.90;;;;;;5080356;28;19976;-87
2023/05/07 00:41:41;;;;;;;;;;;11.50;99.90;;;;;;5115940;28;20378;-87
2023/05/07 00:44:06;;;;;;;;;;;11.50;99.90;;;;;;5097137;28;20018;-88
2023/05/07 00:46:32;;;;;;;;;;;11.40;99.90;;;;;;5097021;28;20375;-88
2023/05/07 00:48:58;;;;;;;;;;;11.40;99.90;;;;;;5096667;28;19923;-88
2023/05/07 00:51:27;;;;;;;;;;;11.40;99.90;;;;;;5096893;28;20355;-87
2023/05/07 00:53:52;;;;;;;;;;;11.40;99.90;;;;;;5096113;28;20282;-87
2023/05/07 00:56:20;;;;;;;;;;;11.40;99.90;;;;;;5080262;28;19928;-88
2023/05/07 00:58:45;;;;;;;;;;;11.30;99.90;;;;;;5080252;28;19924;-87
2023/05/07 01:01:11;;;;;;;;;;;11.40;99.90;;;;;;5062715;28;20268;-88
2023/05/07 01:03:36;;;;;;;;;;;11.30;99.90;;;;;;5096629;28;19972;-87
2023/05/07 01:06:03;;;;;;;;;;;11.30;99.90;;;;;;5097597;28;19924;-87
2023/05/07 01:08:29;;;;;;;;;;;11.30;99.90;;;;;;5064083;28;20263;-88
2023/05/07 01:10:56;;;;;;;;;;;11.20;99.90;;;;;;5096558;28;20386;-87
2023/05/07 01:13:22;;;;;;;;;;;11.20;99.90;;;;;;5080653;28;19931;-87
2023/05/07 01:15:47;;;;;;;;;;;11.20;99.90;;;;;;5063117;28;19923;-87
2023/05/07 01:18:13;;;;;;;;;;;11.20;99.90;;;;;;5097233;28;20014;-87
2023/05/07 01:20:38;;;;;;;;;;;12.80;99.90;;;;;;5113288;28;20117;-88
2023/05/07 01:23:05;;;;;;;;;;;11.20;99.90;;;;;;5062906;28;19931;-88
2023/05/07 01:25:31;;;;;;;;;;;11.10;99.90;;;;;;5081024;28;19923;-88
2023/05/07 01:27:56;;;;;;;;;;;11.10;99.90;;;;;;5096363;28;20259;-87
2023/05/07 01:30:22;;;;;;;;;;;11.10;99.90;;;;;;5096485;28;19956;-87
2023/05/07 01:32:48;;;;;;;;;;;11.10;99.90;;;;;;5096687;28;19945;-87
2023/05/07 01:35:18;;;;;;;;;;;11.00;99.90;;;;;;5096112;28;20014;-87
2023/05/07 01:37:44;;;;;;;;;;;11.00;99.90;;;;;;5096419;28;19923;-87
2023/05/07 01:40:10;;;;;;;;;;;11.00;99.90;;;;;;5096118;28;19928;-87
2023/05/07 01:42:36;;;;;;;;;;;11.10;99.90;;;;;;5096285;28;19973;-87
2023/05/07 01:45:02;;;;;;;;;;;10.90;99.90;;;;;;5062712;28;19931;-87
2023/05/07 01:47:28;;;;;;;;;;;10.90;99.90;;;;;;5096777;28;19978;-88
2023/05/07 01:49:55;;;;;;;;;;;10.90;99.90;;;;;;5079757;28;19927;-87
2023/05/07 01:52:20;;;;;;;;;;;10.90;99.90;;;;;;5079837;28;20006;-87
2023/05/07 01:54:46;;;;;;;;;;;10.90;99.90;;;;;;5062605;28;20027;-87
2023/05/07 01:57:11;;;;;;;;;;;10.80;99.90;;;;;;5096190;28;19924;-87
2023/05/07 01:59:37;;;;;;;;;;;10.80;99.90;;;;;;5096021;28;20341;-88
2023/05/07 02:02:02;;;;;;;;;;;10.80;99.90;;;;;;5095440;28;19923;-87
2023/05/07 02:04:28;;;;;;;;;;;10.80;99.90;;;;;;5097633;28;19924;-88
2023/05/07 02:06:54;;;;;;;;;;;12.00;99.90;;;;;;5082896;28;19978;-87
2023/05/07 02:09:19;;;;;;;;;;;10.80;99.90;;;;;;5100098;28;20347;-87
2023/05/07 02:11:45;;;;;;;;;;;10.80;99.90;;;;;;5099984;28;20024;-87
2023/05/07 02:14:10;;;;;;;;;;;10.70;99.90;;;;;;5099828;28;19998;-88
2023/05/07 02:16:36;;;;;;;;;;;10.70;99.90;;;;;;5099859;28;19924;-87
2023/05/07 02:19:02;;;;;;;;;;;10.70;99.90;;;;;;5099606;28;19946;-87
2023/05/07 02:21:27;;;;;;;;;;;10.70;99.90;;;;;;5082171;28;20264;-88
2023/05/07 02:23:53;;;;;;;;;;;10.70;99.90;;;;;;5082448;28;19977;-87
2023/05/07 02:26:21;;;;;;;;;;;10.60;99.90;;;;;;5065990;28;20368;-89
2023/05/07 02:28:50;;;;;;;;;;;10.60;99.90;;;;;;5083457;28;19935;-89
2023/05/07 02:31:16;;;;;;;;;;;10.60;99.90;;;;;;5082634;28;20383;-89
2023/05/07 02:33:45;;;;;;;;;;;10.60;99.90;;;;;;5081756;28;19924;-89
2023/05/07 02:36:11;;;;;;;;;;;10.60;99.90;;;;;;5082105;28;20328;-89
2023/05/07 02:38:37;;;;;;;;;;;10.60;99.90;;;;;;5099143;28;19996;-92
2023/05/07 02:41:05;;;;;;;;;;;10.70;99.90;;;;;;5081807;28;19971;-88
2023/05/07 02:43:34;;;;;;;;;;;10.70;99.90;;;;;;5099251;28;20240;-88
2023/05/07 02:46:02;;;;;;;;;;;10.50;99.90;;;;;;5081528;28;19928;-89
2023/05/07 02:48:28;;;;;;;;;;;10.60;99.90;;;;;;5081636;28;20379;-88
2023/05/07 02:50:54;;;;;;;;;;;10.70;99.90;;;;;;5081752;28;19931;-88
2023/05/07 02:53:22;;;;;;;;;;;10.50;99.90;;;;;;5098849;28;19927;-88
2023/05/07 02:55:50;;;;;;;;;;;10.60;99.90;;;;;;5081762;28;19988;-88
2023/05/07 02:58:16;;;;;;;;;;;10.60;99.90;;;;;;5065687;28;19930;-90
2023/05/07 03:00:41;;;;;;;;;;;9.70;99.90;;;;;;5098111;28;20290;-87
2023/05/07 03:03:10;;;;;;;;;;;10.40;99.90;;;;;;5099437;28;19924;-88
2023/05/07 03:05:36;;;;;;;;;;;10.00;99.90;;;;;;5082547;28;20031;-89
2023/05/07 03:08:04;;;;;;;;;;;10.80;99.90;;;;;;5082448;28;20377;-88
2023/05/07 03:10:30;;;;;;;;;;;10.40;99.90;;;;;;5098700;28;19928;-89
2023/05/07 03:12:56;;;;;;;;;;;11.40;99.90;;;;;;5081170;28;20367;-88
2023/05/07 03:15:24;;;;;;;;;;;10.40;99.90;;;;;;5080717;28;19924;-89
2023/05/07 03:17:52;;;;;;;;;;;10.70;99.90;;;;;;5081327;28;19923;-88
2023/05/07 03:20:20;;;;;;;;;;;10.90;99.90;;;;;;5081346;28;19931;-89
2023/05/07 03:22:56;;;;;;;;;;;9.40;99.90;;;;;;5081373;28;19974;-89
2023/05/07 03:25:22;;;;;;;;;;;10.60;99.90;;;;;;5081419;28;20072;-89
2023/05/07 03:27:50;;;;;;;;;;;9.00;99.90;;;;;;5081341;28;19924;-89
2023/05/07 03:30:23;;;;;;;;;;;10.40;99.90;;;;;;5081387;28;19935;-89
2023/05/07 03:32:51;;;;;;;;;;;10.80;99.90;;;;;;5081253;28;19925;-88
2023/05/07 03:35:17;;;;;;;;;;;10.40;99.90;;;;;;5064368;28;20367;-88
2023/05/07 03:37:42;;;;;;;;;;;10.70;99.90;;;;;;5081137;28;19930;-89
2023/05/07 03:40:28;;;;;;;;;;;10.50;99.90;;;;;;5081032;28;20314;-89
2023/05/07 03:42:56;;;;;;;;;;;10.40;99.90;;;;;;5098240;28;20305;-90
2023/05/07 03:45:25;;;;;;;;;;;10.40;99.90;;;;;;5081038;28;19923;-88
2023/05/07 03:48:00;;;;;;;;;;;10.30;99.90;;;;;;5064270;28;20351;-88
2023/05/07 03:50:28;;;;;;;;;;;10.30;99.90;;;;;;5081685;28;19924;-89
2023/05/07 03:52:54;;;;;;;;;;;11.30;99.90;;;;;;5097453;28;19989;-88
2023/05/07 03:55:19;;;;;;;;;;;10.60;99.90;;;;;;5081463;28;19928;-90
2023/05/07 03:57:45;;;;;;;;;;;10.30;99.90;;;;;;5080776;28;20370;-89
2023/05/07 04:00:21;;;;;;;;;;;;;;;;;;;;;
2023/05/07 04:02:47;;;;;;;;;;;10.30;99.90;;;;;;5097440;28;19930;-88
2023/05/07 04:05:13;;;;;;;;;;;10.10;99.90;;;;;;5080640;28;19924;-89
2023/05/07 04:07:39;;;;;;;;;;;8.60;99.90;;;;;;5081220;28;19927;-88
2023/05/07 04:10:15;;;;;;;;;;;;;;;;;;;;;
2023/05/07 04:12:41;;;;;;;;;;;10.20;99.90;;;;;;5081855;28;19930;-89
2023/05/07 04:15:09;;;;;;;;;;;10.20;99.90;;;;;;5096959;28;19928;-86
2023/05/07 04:17:35;;;;;;;;;;;10.20;99.90;;;;;;5063606;28;19950;-87
2023/05/07 04:20:03;;;;;;;;;;;10.20;99.90;;;;;;5064306;28;19923;-88
2023/05/07 04:22:29;;;;;;;;;;;10.20;99.90;;;;;;5063824;28;19977;-88
2023/05/07 04:24:58;;;;;;;;;;;10.00;99.90;;;;;;5080839;28;19932;-88
2023/05/07 04:27:24;;;;;;;;;;;10.20;99.90;;;;;;5079989;28;19977;-87
2023/05/07 04:29:55;;;;;;;;;;;10.20;99.90;;;;;;5096875;28;19931;-87
2023/05/07 04:32:21;;;;;;;;;;;10.30;99.90;;;;;;5097636;28;19946;-87
2023/05/07 04:34:47;;;;;;;;;;;10.60;99.90;;;;;;5080016;28;19927;-87
2023/05/07 04:37:13;;;;;;;;;;;10.30;99.90;;;;;;5079925;28;19931;-86
2023/05/07 04:39:38;;;;;;;;;;;10.50;99.90;;;;;;5097264;28;19931;-88
2023/05/07 04:42:06;;;;;;;;;;;10.10;99.90;;;;;;5079886;28;19931;-88
2023/05/07 04:44:32;;;;;;;;;;;10.10;99.90;;;;;;5079629;28;20394;-87
2023/05/07 04:47:00;;;;;;;;;;;10.10;99.90;;;;;;5097280;28;20014;-87
2023/05/07 04:49:26;;;;;;;;;;;10.10;99.90;;;;;;5097146;28;19935;-87
2023/05/07 04:51:52;;;;;;;;;;;10.40;99.90;;;;;;5079277;28;19924;-87
2023/05/07 04:54:20;;;;;;;;;;;10.10;99.90;;;;;;5063075;28;19985;-88
2023/05/07 04:56:46;;;;;;;;;;;10.10;99.90;;;;;;5109707;28;19923;-87
2023/05/07 04:59:11;;;;;;;;;;;10.10;99.90;;;;;;5103317;28;19924;-89
2023/05/07 05:01:40;;;;;;;;;;;10.10;99.90;;;;;;5103388;28;19916;-88
2023/05/07 05:04:05;;;;;;;;;;;10.90;99.90;;;;;;5086645;28;19923;-89
2023/05/07 05:06:32;;;;;;;;;;;10.10;99.90;;;;;;5093040;28;19928;-88
2023/05/07 05:08:57;;;;;;;;;;;10.10;99.90;;;;;;5099935;28;19923;-87
2023/05/07 05:11:23;;;;;;;;;;;10.20;99.90;;;;;;5080579;28;20013;-88
2023/05/07 05:13:49;;;;;;;;;;;10.20;99.90;;;;;;5084438;28;19976;-87
2023/05/07 05:16:17;;;;;;;;;;;10.20;99.90;;;;;;5080749;28;19924;-86
2023/05/07 05:18:45;;;;;;;;;;;10.10;99.90;;;;;;5062840;28;19924;-88
2023/05/07 05:21:11;;;;;;;;;;;10.10;99.90;;;;;;5079179;28;19923;-89
2023/05/07 05:23:39;;;;;;;;;;;10.20;99.90;;;;;;5079411;28;19930;-88
2023/05/07 05:26:07;;;;;;;;;;;10.20;99.90;;;;;;5063398;28;20284;-88
2023/05/07 05:28:32;;;;;;;;;;;10.10;99.90;;;;;;5062554;28;19923;-88
2023/05/07 05:31:06;;;;;;;;;;;10.10;99.90;;;;;;5079366;28;19923;-87
2023/05/07 05:33:31;;;;;;;;;;;10.20;99.90;;;;;;5079723;28;20081;-86
2023/05/07 05:35:57;;;;;;;;;;;10.70;99.90;;;;;;5079012;28;19994;-87
2023/05/07 05:38:22;;;;;;;;;;;10.10;99.90;;;;;;5096572;28;19924;-87
2023/05/07 05:40:48;;;;;;;;;;;8.60;99.90;;;;;;5082617;28;19928;-88
2023/05/07 05:43:14;;;;;;;;;;;10.20;99.90;;;;;;5083378;28;20392;-86
2023/05/07 05:45:40;;;;;;;;;;;10.20;99.90;;;;;;5083189;28;20256;-87
2023/05/07 05:48:08;;;;;;;;;;;10.20;99.90;;;;;;5083295;28;19931;-86
2023/05/07 05:50:36;;;;;;;;;;;10.20;99.90;;;;;;5083760;28;19932;-86
2023/05/07 05:53:02;;;;;;;;;;;10.20;99.90;;;;;;5082986;28;19923;-86
2023/05/07 05:55:27;;;;;;;;;;;9.10;99.90;;;;;;5083752;28;19924;-87
2023/05/07 05:57:53;;;;;;;;;;;10.10;99.90;;;;;;5082803;28;19923;-87
2023/05/07 06:00:22;;;;;;;;;;;10.40;99.90;;;;;;5099471;28;19934;-87
2023/05/07 06:02:48;;;;;;;;;;;10.20;99.90;;;;;;5099213;28;20072;-86
2023/05/07 06:05:19;;;;;;;;;;;10.10;99.90;;;;;;5099195;28;19935;-86
2023/05/07 06:07:44;;;;;;;;;;;10.10;99.90;;;;;;5099605;28;20406;-87
2023/05/07 06:10:12;;;;;;;;;;;10.10;99.90;;;;;;5082556;28;19923;-88
2023/05/07 06:12:40;;;;;;;;;;;10.10;99.90;;;;;;5100181;28;20090;-87
2023/05/07 06:15:06;;;;;;;;;;;10.30;99.90;;;;;;5082654;28;19931;-88
2023/05/07 06:17:32;;;;;;;;;;;10.10;99.90;;;;;;5066066;28;20259;-88
2023/05/07 06:19:57;;;;;;;;;;;10.10;99.90;;;;;;5082227;28;20296;-88
2023/05/07 06:22:23;;;;;;;;;;;10.20;99.90;;;;;;5066070;28;19930;-88
2023/05/07 06:24:49;;;;;;;;;;;8.90;99.90;;;;;;5099195;28;19928;-88
2023/05/07 06:27:17;;;;;;;;;;;10.20;99.90;;;;;;5082343;28;20367;-88
2023/05/07 06:29:47;;;;;;;;;;;10.20;99.90;;;;;;5082145;28;20347;-88
2023/05/07 06:32:13;;;;;;;;;;;10.20;99.90;;;;;;5099375;28;19946;-88
2023/05/07 06:34:39;;;;;;;;;;;10.30;99.90;;;;;;5082484;28;20001;-88
2023/05/07 06:37:08;;;;;;;;;;;10.20;99.90;;;;;;5082186;28;19923;-88
2023/05/07 06:39:34;;;;;;;;;;;10.20;99.90;;;;;;5082024;28;19931;-87
2023/05/07 06:42:00;;;;;;;;;;;10.30;99.90;;;;;;5082191;28;19928;-86
2023/05/07 06:44:28;;;;;;;;;;;10.40;99.90;;;;;;5098615;28;19924;-87
2023/05/07 06:47:01;;;;;;;;;;;10.50;99.90;;;;;;5081959;28;19924;-86
2023/05/07 06:49:29;;;;;;;;;;;10.80;99.90;;;;;;5081538;28;19924;-87
2023/05/07 06:51:55;;;;;;;;;;;10.70;99.90;;;;;;5081411;28;19935;-86
2023/05/07 06:54:23;;;;;;;;;;;10.50;99.90;;;;;;5081854;28;19924;-85
2023/05/07 06:56:51;;;;;;;;;;;10.50;99.90;;;;;;5099086;28;20333;-86
2023/05/07 06:59:16;;;;;;;;;;;10.50;99.90;;;;;;5081474;28;19980;-86
2023/05/07 07:01:42;;;;;;;;;;;10.50;99.90;;;;;;5098293;28;19924;-87
2023/05/07 07:04:08;;;;;;;;;;;10.50;99.90;;;;;;5081446;28;20006;-87
2023/05/07 07:06:33;;;;;;;;;;;10.60;99.90;;;;;;5098567;28;19923;-87
2023/05/07 07:08:59;;;;;;;;;;;10.60;99.90;;;;;;5081327;28;19981;-86
2023/05/07 07:11:25;;;;;;;;;;;10.60;99.90;;;;;;5081439;28;19983;-87
2023/05/07 07:13:54;;;;;;;;;;;10.60;99.90;;;;;;5080962;28;19932;-86
2023/05/07 07:16:20;;;;;;;;;;;10.50;99.90;;;;;;5081478;28;19928;-88
2023/05/07 07:18:46;;;;;;;;;;;10.70;99.90;;;;;;5080773;28;19931;-88
2023/05/07 07:21:11;;;;;;;;;;;10.70;99.90;;;;;;5064294;28;19923;-86
2023/05/07 07:23:37;;;;;;;;;;;10.70;99.90;;;;;;5080974;28;19924;-93
2023/05/07 07:26:03;;;;;;;;;;;8.80;99.90;;;;;;5064373;28;19963;-88
2023/05/07 07:28:28;;;;;;;;;;;10.70;99.90;;;;;;5064522;28;19924;-88
2023/05/07 07:30:56;;;;;;;;;;;10.70;99.90;;;;;;5098512;28;19927;-85
2023/05/07 07:33:22;;;;;;;;;;;10.80;99.90;;;;;;5064548;28;19923;-87
2023/05/07 07:35:50;;;;;;;;;;;10.80;99.90;;;;;;5064909;28;19924;-87
2023/05/07 07:38:21;;;;;;;;;;;8.60;99.90;;;;;;5065120;28;19931;-90
2023/05/07 07:40:50;;;;;;;;;;;10.00;99.90;;;;;;5081647;28;19924;-85
2023/05/07 07:43:21;;;;;;;;;;;10.80;99.90;;;;;;5098034;28;19973;-88
2023/05/07 07:45:49;;;;;;;;;;;11.10;99.90;;;;;;5080642;28;20359;-88
2023/05/07 07:48:25;;;;;;;;;;;11.00;99.90;;;;;;5080882;28;19924;-86
2023/05/07 07:50:53;;;;;;;;;;;11.10;99.90;;;;;;5065245;28;20280;-89
2023/05/07 07:53:21;;;;;;;;;;;11.40;99.90;;;;;;5063870;28;19976;-87
2023/05/07 07:56:00;;;;;;;;;;;;;;;;;;;;;
2023/05/07 07:58:39;;;;;;;;;;;10.20;99.90;;;;;;5082240;28;19931;-88
2023/05/07 08:01:13;;;;;;;;;;;10.20;99.90;;;;;;5079753;28;19985;-88
2023/05/07 08:03:48;;;;;;;;;;;11.30;99.90;;;;;;5064897;28;20314;-88
2023/05/07 08:06:24;;;;;;;;;;;11.60;99.90;;;;;;5097981;28;20038;-88
2023/05/07 08:08:55;;;;;;;;;;;11.80;99.90;;;;;;5080767;28;20336;-88
2023/05/07 08:11:32;;;;;;;;;;;11.40;99.90;;;;;;5079954;28;19924;-88
2023/05/07 08:14:03;;;;;;;;;;;12.10;99.90;;;;;;5080581;28;19924;-87
2023/05/07 08:16:34;;;;;;;;;;;12.20;99.90;;;;;;5081175;28;20106;-87
2023/05/07 08:19:03;;;;;;;;;;;11.90;99.90;;;;;;5080305;28;20252;-87
2023/05/07 08:21:30;;;;;;;;;;;11.80;99.90;;;;;;5080192;28;20018;-87
2023/05/07 08:24:01;;;;;;;;;;;11.80;99.90;;;;;;5080641;28;20344;-88
2023/05/07 08:26:35;;;;;;;;;;;12.10;99.90;;;;;;5097625;28;20289;-89
2023/05/07 08:29:01;;;;;;;;;;;11.90;99.90;;;;;;5080016;28;20271;-87
2023/05/07 08:31:27;;;;;;;;;;;10.60;99.90;;;;;;5063346;28;19930;-86
2023/05/07 08:33:55;;;;;;;;;;;12.20;99.90;;;;;;5080127;28;20321;-86
2023/05/07 08:36:29;;;;;;;;;;;12.10;99.90;;;;;;5080284;28;19999;-86
2023/05/07 08:39:00;;;;;;;;;;;12.00;99.90;;;;;;5080291;28;19931;-87
2023/05/07 08:41:32;;;;;;;;;;;12.10;99.90;;;;;;5079797;28;19924;-87
2023/05/07 08:44:02;;;;;;;;;;;12.10;99.90;;;;;;5080083;28;19938;-88
2023/05/07 08:46:40;;;;;;;;;;;12.50;99.90;;;;;;5079912;28;19924;-87
2023/05/07 08:49:10;;;;;;;;;;;13.20;99.90;;;;;;5080605;28;19923;-91
2023/05/07 08:51:51;;;;;;;;;;;;;;;;;;;;;
2023/05/07 08:54:29;;;;;;;;;;;12.90;99.90;;;;;;5114045;28;20371;-90
2023/05/07 09:00:13;;;;;;;;;;;11.50;99.90;;;;;;5096569;28;19927;-91
2023/05/07 09:02:40;;;;;;;;;;;12.90;99.90;;;;;;5090050;28;19957;-90
2023/05/07 09:05:11;;;;;;;;;;;13.00;99.90;;;;;;5104246;28;19923;-89
2023/05/07 09:07:45;;;;;;;;;;;13.20;99.90;;;;;;5135739;28;19912;-89
2023/05/07 09:10:12;;;;;;;;;;;13.30;99.90;;;;;;5102235;28;19930;-91
2023/05/07 09:13:06;;;;;;;;;;;13.00;99.90;;;;;;5089454;28;20351;-90
2023/05/07 09:15:48;;;;;;;;;;;13.20;99.90;;;;;;5088345;28;19973;-89
2023/05/07 09:18:16;;;;;;;;;;;13.40;99.90;;;;;;5075131;28;19924;-89
2023/05/07 09:20:42;;;;;;;;;;;13.30;99.90;;;;;;5087500;28;20018;-91
2023/05/07 09:23:18;;;;;;;;;;;13.70;99.90;;;;;;5081054;28;20408;-91
2023/05/07 09:26:02;;;;;;;;;;;;;;;;;;;;;
2023/05/07 09:31:33;;;;;;;;;;;12.70;99.90;;;;;;5097314;28;20010;-90
2023/05/07 09:34:01;;;;;;;;;;;13.60;99.90;;;;;;5079695;28;19925;-90
2023/05/07 09:36:32;;;;;;;;;;;12.70;99.90;;;;;;5096182;28;19976;-91
2023/05/07 09:39:04;;;;;;;;;;;13.60;99.90;;;;;;5080133;28;19923;-91
2023/05/07 09:41:32;;;;;;;;;;;12.80;99.90;;;;;;5079350;28;19938;-90
2023/05/07 09:44:03;;;;;;;;;;;13.60;99.90;;;;;;5079581;28;19979;-92
2023/05/07 09:46:39;;;;;;;;;;;13.70;99.90;;;;;;5079922;28;19928;-93
2023/05/07 09:49:08;;;;;;;;;;;13.90;99.90;;;;;;5079571;28;19924;-91
2023/05/07 09:51:39;;;;;;;;;;;13.90;99.90;;;;;;5079167;28;19924;-91
2023/05/07 09:54:08;;;;;;;;;;;14.00;99.90;;;;;;5079727;28;19930;-93
2023/05/07 09:57:04;;;;;;;;;;;14.00;99.90;;;;;;5079785;28;19946;-91
2023/05/07 09:59:40;;;;;;;;;;;13.80;99.90;;;;;;5081986;28;19923;-91
2023/05/07 10:02:12;;;;;;;;;;;14.50;99.90;;;;;;5075759;28;19957;-92
2023/05/07 10:04:49;;;;;;;;;;;14.80;99.90;;;;;;5062046;28;19924;-91
2023/05/07 10:07:17;;;;;;;;;;;14.50;99.90;;;;;;5110327;28;20268;-93
2023/05/07 10:09:51;;;;;;;;;;;14.90;99.90;;;;;;5110656;28;20260;-91
2023/05/07 10:12:27;;;;;;;;;;;14.20;99.90;;;;;;5060038;28;19924;-91
2023/05/07 10:15:10;;;;;;;;;;;14.20;99.90;;;;;;5076169;28;19924;-92
2023/05/07 10:17:36;;;;;;;;;;;14.40;99.90;;;;;;5076703;28;19931;-93
2023/05/07 10:20:20;;;;;;;;;;;13.10;99.90;;;;;;5058693;28;19949;-92
2023/05/07 10:23:08;;;;;;;;;;;16.30;99.90;;;;;;5076636;28;20217;-92
2023/05/07 10:26:11;;;;;;;;;;;13.60;99.90;;;;;;5094116;28;19971;-91
2023/05/07 10:31:42;;;;;;;;;;;14.30;99.90;;;;;;5113435;28;19931;-90
2023/05/07 10:34:41;;;;;;;;;;;;;;;;;;;;;
2023/05/07 10:37:19;;;;;;;;;;;14.80;99.90;;;;;;5090739;28;19924;-89
2023/05/07 10:39:58;;;;;;;;;;;15.10;99.90;;;;;;5063303;28;20386;-88
2023/05/07 10:42:38;;;;;;;;;;;14.80;99.90;;;;;;5079668;28;19932;-90
2023/05/07 10:45:16;;;;;;;;;;;15.40;99.90;;;;;;5080066;28;19973;-89
2023/05/07 10:48:03;;;;;;;;;;;15.20;99.90;;;;;;5095047;28;19924;-91
2023/05/07 10:50:34;;;;;;;;;;;15.10;99.90;;;;;;5095631;28;19928;-90
2023/05/07 10:53:25;;;;;;;;;;;15.00;99.90;;;;;;5079356;28;19924;-90
2023/05/07 10:56:14;;;;;;;;;;;15.60;99.90;;;;;;5078573;28;19978;-89
2023/05/07 10:58:45;;;;;;;;;;;14.20;99.90;;;;;;5078405;28;19931;-90
2023/05/07 11:01:24;;;;;;;;;;;;;;;;;;;;;
2023/05/07 11:04:14;;;;;;;;;;;15.40;99.90;;;;;;5098976;28;20360;-90
2023/05/07 11:06:49;;;;;;;;;;;15.10;99.90;;;;;;5081481;28;19946;-89
2023/05/07 11:09:17;;;;;;;;;;;15.20;99.90;;;;;;5082072;28;20260;-91
2023/05/07 11:11:55;;;;;;;;;;;15.00;99.90;;;;;;5081925;28;20451;-89
2023/05/07 11:14:53;;;;;;;;;;;15.40;99.90;;;;;;5065983;28;19930;-90
2023/05/07 11:17:31;;;;;;;;;;;15.10;99.90;;;;;;5011963;28;19973;-90
2023/05/07 11:20:00;;;;;;;;;;;15.10;99.90;;;;;;5081593;28;19924;-90
2023/05/07 11:22:49;;;;;;;;;;;15.20;99.90;;;;;;5116187;28;19924;-90
2023/05/07 11:25:35;;;;;;;;;;;15.20;99.90;;;;;;5099086;28;20335;-89
2023/05/07 11:28:24;;;;;;;;;;;16.50;99.90;;;;;;5064573;28;19930;-89
2023/05/07 11:30:49;;;;;;;;;;;15.60;99.90;;;;;;5084569;28;19927;-86
2023/05/07 11:33:45;;;;;;;;;;;15.80;99.90;;;;;;5100037;28;19978;-88
2023/05/07 11:36:27;;;;;;;;;;;15.70;99.90;;;;;;5084189;28;19977;-89
2023/05/07 11:39:02;;;;;;;;;;;15.80;99.90;;;;;;5115089;28;19976;-88
2023/05/07 11:41:37;;;;;;;;;;;14.60;99.90;;;;;;5098350;28;19924;-90
2023/05/07 11:44:11;;;;;;;;;;;17.20;99.90;;;;;;5080889;28;19981;-89
2023/05/07 11:46:42;;;;;;;;;;;16.10;99.90;;;;;;5082151;28;20298;-89
2023/05/07 11:49:13;;;;;;;;;;;16.10;99.90;;;;;;5097881;28;19927;-88
2023/05/07 11:51:41;;;;;;;;;;;16.80;99.90;;;;;;5081905;28;20022;-89
2023/05/07 11:54:27;;;;;;;;;;;16.40;99.90;;;;;;5081710;28;20019;-89
2023/05/07 11:56:55;;;;;;;;;;;16.30;99.90;;;;;;5080823;28;19985;-89
2023/05/07 11:59:44;;;;;;;;;;;16.60;99.90;;;;;;5080657;28;19965;-91
2023/05/07 12:02:27;;;;;;;;;;;;;;;;;;;;;
2023/05/07 12:04:56;;;;;;;;;;;16.70;99.90;;;;;;5093300;28;19924;-89
2023/05/07 12:07:25;;;;;;;;;;;16.90;99.90;;;;;;5078560;28;19924;-88
2023/05/07 12:10:02;;;;;;;;;;;16.90;99.90;;;;;;5077852;28;20035;-88
2023/05/07 12:12:30;;;;;;;;;;;16.80;99.90;;;;;;5062499;28;19924;-90
2023/05/07 12:14:55;;;;;;;;;;;16.80;99.90;;;;;;5094228;28;20014;-89
2023/05/07 12:17:28;;;;;;;;;;;16.90;99.90;;;;;;5077051;28;19970;-88
2023/05/07 12:19:57;;;;;;;;;;;16.90;99.90;;;;;;5061139;28;19935;-88
2023/05/07 12:22:25;;;;;;;;;;;17.10;99.90;;;;;;5061019;28;19973;-90
2023/05/07 12:24:57;;;;;;;;;;;17.10;99.90;;;;;;5060336;28;19924;-88
2023/05/07 12:27:34;;;;;;;;;;;17.40;99.90;;;;;;5077134;28;19930;-90
2023/05/07 12:30:09;;;;;;;;;;;17.40;99.90;;;;;;5061482;28;19988;-89
2023/05/07 12:32:36;;;;;;;;;;;17.70;99.90;;;;;;5094464;28;20356;-89
2023/05/07 12:35:02;;;;;;;;;;;17.40;99.90;;;;;;5077556;28;19924;-90
2023/05/07 12:37:30;;;;;;;;;;;18.20;99.90;;;;;;5076795;28;20387;-90
2023/05/07 12:40:08;;;;;;;;;;;18.20;99.90;;;;;;5077287;28;19947;-90
2023/05/07 12:42:37;;;;;;;;;;;18.00;99.90;;;;;;5076704;28;19924;-90
2023/05/07 12:45:19;;;;;;;;;;;17.70;99.90;;;;;;5077506;28;19930;-89
2023/05/07 12:47:55;;;;;;;;;;;17.90;99.90;;;;;;5112043;28;20321;-89
2023/05/07 12:50:23;;;;;;;;;;;16.20;99.90;;;;;;5077532;28;20271;-88
2023/05/07 12:52:54;;;;;;;;;;;17.80;99.90;;;;;;5093539;28;19928;-88
2023/05/07 12:55:41;;;;;;;;;;;17.90;99.90;;;;;;5099429;28;19925;-89
2023/05/07 12:58:08;;;;;;;;;;;17.70;99.90;;;;;;5093744;28;19932;-88
2023/05/07 13:00:47;;;;;;;;;;;;;;;;;;;;;
2023/05/07 13:03:32;;;;;;;;;;;18.60;99.90;;;;;;5102630;28;19935;-89
2023/05/07 13:06:09;;;;;;;;;;;18.60;99.90;;;;;;5100769;28;19925;-90
2023/05/07 13:08:45;;;;;;;;;;;17.90;99.90;;;;;;5100513;28;19943;-91
2023/05/07 13:11:31;;;;;;;;;;;17.80;99.90;;;;;;5101760;28;19937;-91
2023/05/07 13:13:56;;;;;;;;;;;18.00;99.90;;;;;;5105021;28;19935;-90
2023/05/07 13:16:43;;;;;;;;;;;18.10;99.90;;;;;;5097310;28;19963;-90
2023/05/07 13:19:29;;;;;;;;;;;18.90;99.90;;;;;;5114728;28;20310;-90
2023/05/07 13:22:02;;;;;;;;;;;18.20;99.90;;;;;;5063292;28;19928;-89
2023/05/07 13:24:32;;;;;;;;;;;18.60;99.90;;;;;;5077129;28;20383;-89
2023/05/07 13:27:03;;;;;;;;;;;18.30;99.90;;;;;;5093964;28;19947;-89
2023/05/07 13:29:31;;;;;;;;;;;18.40;99.90;;;;;;5076297;28;19928;-89
2023/05/07 13:31:59;;;;;;;;;;;18.60;99.90;;;;;;5075770;28;20072;-89
2023/05/07 13:34:41;;;;;;;;;;;;;;;;;;;;;
2023/05/07 13:37:07;;;;;;;;;;;18.10;99.90;;;;;;5093124;28;19931;-90
2023/05/07 13:39:33;;;;;;;;;;;18.30;99.90;;;;;;5077120;28;20376;-89
2023/05/07 13:41:59;;;;;;;;;;;18.30;99.90;;;;;;5075782;28;19935;-89
2023/05/07 13:44:30;;;;;;;;;;;18.10;99.90;;;;;;5076339;28;19924;-90
2023/05/07 13:46:55;;;;;;;;;;;18.10;99.90;;;;;;5076353;28;19930;-89
2023/05/07 13:49:23;;;;;;;;;;;18.20;99.90;;;;;;5058974;28;20352;-90
2023/05/07 13:51:49;;;;;;;;;;;18.30;99.90;;;;;;5093705;28;20019;-89
2023/05/07 13:54:20;;;;;;;;;;;18.20;99.90;;;;;;5076110;28;20361;-91
2023/05/07 13:56:51;;;;;;;;;;;18.20;99.90;;;;;;5076550;28;19924;-88
2023/05/07 13:59:19;;;;;;;;;;;16.70;99.90;;;;;;5076786;28;19990;-89
2023/05/07 14:01:47;;;;;;;;;;;18.30;99.90;;;;;;5082281;28;19969;-89
2023/05/07 14:04:15;;;;;;;;;;;17.70;99.90;;;;;;5084146;28;19923;-90
2023/05/07 14:06:43;;;;;;;;;;;18.00;99.90;;;;;;5100217;28;19924;-89
2023/05/07 14:09:13;;;;;;;;;;;18.10;99.90;;;;;;5083087;28;19935;-88
2023/05/07 14:11:51;;;;;;;;;;;18.10;99.90;;;;;;5083182;28;20321;-89
2023/05/07 14:14:17;;;;;;;;;;;18.20;99.90;;;;;;5100831;28;20014;-90
2023/05/07 14:16:45;;;;;;;;;;;18.20;99.90;;;;;;5100078;28;19923;-90
2023/05/07 14:19:11;;;;;;;;;;;18.00;99.90;;;;;;5083025;28;19924;-90
2023/05/07 14:21:41;;;;;;;;;;;18.30;99.90;;;;;;5066351;28;19932;-89
2023/05/07 14:24:09;;;;;;;;;;;18.20;99.90;;;;;;5101056;28;19934;-90
2023/05/07 14:26:40;;;;;;;;;;;18.40;99.90;;;;;;5068815;28;20034;-89
2023/05/07 14:29:06;;;;;;;;;;;18.10;99.90;;;;;;5100844;28;19924;-88
2023/05/07 14:31:33;;;;;;;;;;;18.30;99.90;;;;;;5083345;28;19924;-89
2023/05/07 14:34:02;;;;;;;;;;;18.40;99.90;;;;;;5083656;28;19924;-89
2023/05/07 14:36:31;;;;;;;;;;;18.80;99.90;;;;;;5084707;28;20249;-89
2023/05/07 14:39:02;;;;;;;;;;;18.70;99.90;;;;;;5084620;28;19923;-90
2023/05/07 14:41:33;;;;;;;;;;;18.90;99.90;;;;;;5083577;28;19935;-90
2023/05/07 14:44:07;;;;;;;;;;;18.70;99.90;;;;;;5099825;28;19924;-88
2023/05/07 14:46:35;;;;;;;;;;;18.70;99.90;;;;;;5100205;28;20002;-89
2023/05/07 14:49:02;;;;;;;;;;;19.00;99.90;;;;;;5066039;28;19946;-88
2023/05/07 14:51:28;;;;;;;;;;;18.40;99.90;;;;;;5099791;28;20371;-89